createdAt,value
2022-08-18T00:01:14.486Z,11.27
2022-08-18T00:04:02.851Z,8.27
2022-08-18T00:06:49.312Z,9.38
2022-08-18T00:09:36.684Z,13.23
2022-08-18T00:12:32.572Z,6.20
2022-08-18T00:15:19.035Z,17.13
2022-08-18T00:18:04.455Z,13.45
2022-08-18T00:20:50.204Z,6.43
2022-08-18T00:23:35.457Z,9.05
2022-08-18T00:26:21.614Z,13.38
2022-08-18T00:29:06.692Z,8.57
2022-08-18T00:31:52.333Z,9.07
2022-08-18T00:34:37.344Z,14.77
2022-08-18T00:37:23.914Z,9.18
2022-08-18T00:40:12.602Z,13.82
2022-08-18T00:43:04.865Z,9.55
2022-08-18T00:45:50.300Z,8.52
2022-08-18T00:48:36.119Z,11.10
2022-08-18T00:51:32.727Z,9.82
2022-08-18T00:54:20.750Z,10.68
2022-08-18T00:57:07.989Z,10.95
2022-08-18T01:00:11.468Z,8.93
2022-08-18T01:02:59.874Z,6.28
2022-08-18T01:05:55.335Z,6.72
2022-08-18T01:08:41.770Z,13.80
2022-08-18T01:11:27.302Z,8.65
2022-08-18T01:14:15.947Z,9.43
2022-08-18T01:17:19.591Z,11.32
2022-08-18T01:20:24.454Z,10.32
2022-08-18T01:23:16.803Z,8.73
2022-08-18T01:28:50.613Z,14.90
2022-08-18T01:31:43.529Z,7.68
2022-08-18T01:34:40.212Z,7.25
2022-08-18T01:37:25.687Z,10.90
2022-08-18T01:41:24.064Z,12.48
2022-08-18T01:43:18.589Z,8.95
2022-08-18T01:46:04.955Z,10.68
2022-08-18T01:48:50.712Z,15.02
2022-08-18T01:51:40.710Z,12.52
2022-08-18T01:54:29.951Z,9.15
2022-08-18T01:57:16.181Z,9.32
2022-08-18T02:00:01.706Z,9.85
2022-08-18T02:02:58.184Z,10.55
2022-08-18T02:05:50.725Z,9.77
2022-08-18T02:08:37.377Z,6.15
2022-08-18T02:11:22.631Z,9.27
2022-08-18T02:14:08.159Z,12.07
2022-08-18T02:16:53.402Z,10.82
2022-08-18T02:19:47.245Z,8.00
2022-08-18T02:22:32.463Z,7.47
2022-08-18T02:25:19.136Z,11.40
2022-08-18T02:28:05.691Z,13.10
2022-08-18T02:30:50.793Z,9.50
2022-08-18T02:33:36.292Z,7.15
2022-08-18T02:36:25.242Z,10.77
2022-08-18T02:39:11.545Z,7.82
2022-08-18T02:41:56.901Z,9.93
2022-08-18T02:44:42.489Z,9.32
2022-08-18T02:47:33.025Z,9.05
2022-08-18T02:50:19.501Z,10.55
2022-08-18T02:53:04.973Z,8.85
2022-08-18T02:55:50.650Z,7.00
2022-08-18T02:58:36.336Z,7.03
2022-08-18T03:01:26.011Z,8.32
2022-08-18T03:04:16.603Z,8.65
2022-08-18T03:07:04.552Z,10.73
2022-08-18T03:09:50.007Z,8.70
2022-08-18T03:12:35.140Z,6.22
2022-08-18T03:15:20.840Z,5.43
2022-08-18T03:18:06.174Z,7.97
2022-08-18T03:20:51.655Z,9.18
2022-08-18T03:23:40.162Z,6.45
2022-08-18T03:26:25.783Z,8.55
2022-08-18T03:29:13.067Z,9.48
2022-08-18T03:31:58.522Z,6.47
2022-08-18T03:34:43.950Z,8.52
2022-08-18T03:37:29.112Z,6.60
2022-08-18T03:40:14.441Z,9.02
2022-08-18T03:43:06.442Z,11.73
2022-08-18T03:46:15.007Z,7.97
2022-08-18T03:49:01.928Z,9.13
2022-08-18T03:51:47.432Z,8.25
2022-08-18T03:54:33.377Z,7.00
2022-08-18T03:57:18.691Z,7.47
2022-08-18T04:00:04.710Z,7.72
2022-08-18T04:02:49.789Z,9.57
2022-08-18T04:05:40.096Z,11.27
2022-08-18T04:08:25.407Z,9.25
2022-08-18T04:11:13.046Z,7.00
2022-08-18T04:13:58.210Z,9.77
2022-08-18T04:16:44.103Z,9.00
2022-08-18T04:19:30.927Z,10.35
2022-08-18T04:22:17.559Z,12.38
2022-08-18T04:25:04.033Z,7.43
2022-08-18T04:27:49.105Z,6.32
2022-08-18T04:30:34.573Z,7.78
2022-08-18T04:33:20.728Z,5.95
2022-08-18T04:36:12.376Z,10.75
2022-08-18T04:39:07.007Z,6.70
2022-08-18T04:41:52.687Z,6.85
2022-08-18T04:44:37.963Z,8.65
2022-08-18T04:47:23.284Z,8.23
2022-08-18T04:50:09.253Z,11.00
2022-08-18T04:53:13.215Z,11.40
2022-08-18T04:56:00.031Z,7.63
2022-08-18T04:58:49.779Z,7.15
2022-08-18T05:01:38.693Z,7.30
2022-08-18T05:04:28.631Z,9.23
2022-08-18T05:07:19.503Z,8.50
2022-08-18T05:10:05.271Z,11.65
2022-08-18T05:12:50.656Z,6.93
2022-08-18T05:15:59.287Z,8.70
2022-08-18T05:18:42.850Z,7.82
2022-08-18T05:21:28.184Z,8.88
2022-08-18T05:24:13.573Z,8.45
2022-08-18T05:26:58.972Z,11.93
2022-08-18T05:29:46.022Z,7.82
2022-08-18T05:32:46.709Z,9.73
2022-08-18T05:35:41.003Z,7.35
2022-08-18T05:38:42.297Z,16.08
2022-08-18T05:41:35.798Z,12.97
2022-08-18T05:44:34.395Z,9.60
2022-08-18T05:47:23.657Z,6.63
2022-08-18T05:50:17.154Z,16.85
2022-08-18T05:53:16.861Z,5.72
2022-08-18T05:56:25.306Z,8.63
2022-08-18T05:59:13.247Z,8.48
2022-08-18T06:02:30.293Z,7.70
2022-08-18T06:05:30.330Z,17.80
2022-08-18T06:08:19.006Z,8.25
2022-08-18T06:11:04.636Z,8.60
2022-08-18T06:13:57.833Z,12.50
2022-08-18T06:17:20.642Z,10.02
2022-08-18T06:20:25.731Z,7.60
2022-08-18T06:23:28.052Z,7.40
2022-08-18T06:29:16.165Z,10.52
2022-08-18T06:32:03.754Z,9.05
2022-08-18T06:35:09.914Z,8.95
2022-08-18T06:38:38.874Z,10.73
2022-08-18T06:41:43.882Z,13.27
2022-08-18T06:44:37.525Z,10.23
2022-08-18T06:47:54.414Z,9.50
2022-08-18T06:50:58.670Z,9.55
2022-08-18T06:54:04.488Z,8.02
2022-08-18T06:56:52.997Z,8.15
2022-08-18T06:59:39.688Z,9.52
2022-08-18T07:02:43.418Z,11.90
2022-08-18T07:05:32.180Z,12.98
2022-08-18T07:08:31.649Z,11.02
2022-08-18T07:11:26.033Z,9.77
2022-08-18T07:14:22.521Z,10.77
2022-08-18T07:17:17.320Z,10.95
2022-08-18T07:20:21.848Z,10.50
2022-08-18T07:23:25.948Z,13.07
2022-08-18T07:26:15.967Z,9.07
2022-08-18T07:29:16.254Z,12.82
2022-08-18T07:32:20.830Z,13.15
2022-08-18T07:35:17.176Z,8.98
2022-08-18T07:41:58.759Z,11.25
2022-08-18T07:45:06.893Z,9.40
2022-08-18T07:48:37.087Z,9.82
2022-08-18T07:51:27.067Z,12.50
2022-08-18T07:54:56.661Z,8.98
2022-08-18T07:57:59.575Z,10.27
2022-08-18T08:01:07.969Z,11.35
2022-08-18T08:04:25.802Z,9.50
2022-08-18T08:07:31.972Z,9.30
2022-08-18T08:10:40.418Z,8.40
2022-08-18T08:13:55.339Z,10.35
2022-08-18T08:16:48.382Z,17.30
2022-08-18T08:20:14.964Z,7.85
2022-08-18T08:26:44.976Z,13.45
2022-08-18T08:29:44.154Z,9.27
2022-08-18T08:32:40.575Z,12.73
2022-08-18T08:35:48.511Z,13.80
2022-08-18T08:38:54.411Z,13.30
2022-08-18T08:42:29.833Z,11.48
2022-08-18T08:45:22.149Z,13.57
2022-08-18T08:48:18.881Z,7.90
2022-08-18T08:51:30.234Z,9.00
2022-08-18T08:54:31.268Z,12.57
2022-08-18T08:57:18.082Z,7.13
2022-08-18T09:00:07.035Z,7.63
2022-08-18T09:03:09.178Z,14.02
2022-08-18T09:06:00.224Z,10.35
2022-08-18T09:09:04.148Z,11.38
2022-08-18T09:12:05.977Z,9.18
2022-08-18T09:15:07.023Z,13.27
2022-08-18T09:18:08.119Z,11.88
2022-08-18T09:21:39.720Z,7.93
2022-08-18T09:24:29.515Z,10.77
2022-08-18T09:27:48.458Z,11.27
2022-08-18T09:30:55.126Z,9.13
2022-08-18T09:33:40.924Z,9.00
2022-08-18T09:36:58.292Z,9.65
2022-08-18T09:40:33.548Z,9.23
2022-08-18T09:44:11.964Z,9.15
2022-08-18T09:47:03.288Z,14.32
2022-08-18T09:49:55.282Z,11.80
2022-08-18T09:52:43.731Z,10.18
2022-08-18T09:55:29.408Z,12.90
2022-08-18T09:58:25.797Z,10.57
2022-08-18T10:01:30.209Z,9.00
2022-08-18T10:04:16.225Z,9.82
2022-08-18T10:07:22.196Z,12.68
2022-08-18T10:10:59.091Z,7.03
2022-08-18T10:13:39.213Z,14.45
2022-08-18T10:16:51.264Z,11.00
2022-08-18T10:19:51.939Z,8.00
2022-08-18T10:22:46.636Z,8.63
2022-08-18T10:25:34.504Z,11.52
2022-08-18T10:28:54.316Z,15.27
2022-08-18T10:32:01.363Z,15.18
2022-08-18T10:34:52.111Z,13.52
2022-08-18T10:37:44.321Z,18.20
2022-08-18T10:40:30.684Z,8.25
2022-08-18T10:43:45.648Z,12.43
2022-08-18T10:46:42.497Z,14.40
2022-08-18T10:49:31.982Z,7.88
2022-08-18T10:52:33.901Z,7.68
2022-08-18T10:55:48.144Z,7.85
2022-08-18T10:58:50.943Z,10.57
2022-08-18T11:04:34.048Z,11.85
2022-08-18T11:07:25.159Z,10.43
2022-08-18T11:13:52.533Z,6.00
2022-08-18T11:17:21.031Z,7.80
2022-08-18T11:20:09.588Z,6.47
2022-08-18T11:23:00.227Z,8.73
2022-08-18T11:25:45.970Z,8.27
2022-08-18T11:28:35.957Z,6.55
2022-08-18T11:31:24.795Z,7.10
2022-08-18T11:34:19.762Z,8.95
2022-08-18T11:37:52.079Z,7.93
2022-08-18T11:43:57.736Z,8.15
2022-08-18T11:46:46.316Z,11.63
2022-08-18T11:49:58.256Z,10.52
2022-08-18T11:52:53.874Z,12.02
2022-08-18T11:55:39.691Z,10.90
2022-08-18T11:58:46.071Z,10.85
2022-08-18T12:01:57.182Z,14.02
2022-08-18T12:04:43.339Z,6.50
2022-08-18T12:07:35.802Z,17.15
2022-08-18T12:13:23.560Z,9.70
2022-08-18T12:16:12.991Z,12.35
2022-08-18T12:18:58.624Z,10.13
2022-08-18T12:21:54.745Z,9.75
2022-08-18T12:24:41.373Z,14.55
2022-08-18T12:30:34.357Z,9.23
2022-08-18T12:33:25.145Z,7.75
2022-08-18T12:36:11.030Z,8.65
2022-08-18T12:38:58.695Z,9.55
2022-08-18T12:41:44.673Z,11.85
2022-08-18T12:44:29.951Z,11.93
2022-08-18T12:47:22.527Z,11.32
2022-08-18T12:50:08.681Z,9.95
2022-08-18T12:52:56.084Z,14.80
2022-08-18T12:55:44.241Z,13.32
2022-08-18T12:58:30.982Z,10.57
2022-08-18T13:01:23.464Z,8.55
2022-08-18T13:07:16.923Z,10.05
2022-08-18T13:10:05.430Z,9.77
2022-08-18T13:12:50.740Z,15.00
2022-08-18T13:15:37.006Z,15.73
2022-08-18T13:18:28.554Z,14.23
2022-08-18T13:21:18.343Z,16.08
2022-08-18T13:24:04.843Z,7.95
2022-08-18T13:26:51.674Z,15.38
2022-08-18T13:29:37.047Z,14.98
2022-08-18T13:32:22.253Z,12.20
2022-08-18T13:35:09.150Z,8.00
2022-08-18T13:37:58.463Z,17.98
2022-08-18T13:40:46.926Z,10.55
2022-08-18T13:43:35.887Z,14.50
2022-08-18T13:46:24.205Z,12.25
2022-08-18T13:49:23.821Z,15.50
2022-08-18T13:52:32.991Z,16.55
2022-08-18T13:55:20.718Z,9.70
2022-08-18T13:58:17.616Z,13.40
2022-08-18T14:01:42.219Z,12.57
2022-08-18T14:04:14.916Z,13.88
2022-08-18T14:07:10.413Z,10.32
2022-08-18T14:09:58.804Z,14.63
2022-08-18T14:12:49.845Z,14.10
2022-08-18T14:15:39.217Z,12.20
2022-08-18T14:18:28.988Z,18.90
2022-08-18T14:21:34.967Z,10.57
2022-08-18T14:24:43.100Z,13.82
2022-08-18T14:27:37.041Z,8.40
2022-08-18T14:30:23.535Z,10.43
2022-08-18T14:33:11.581Z,7.50
2022-08-18T14:36:05.917Z,8.20
2022-08-18T14:38:55.147Z,6.32
2022-08-18T14:41:49.620Z,7.47
2022-08-18T14:44:41.668Z,12.57
2022-08-18T14:47:31.488Z,9.10
2022-08-18T14:50:19.489Z,8.80
2022-08-18T14:53:06.108Z,12.15
2022-08-18T14:55:52.825Z,7.88
2022-08-18T14:58:40.859Z,20.15
2022-08-18T15:01:26.781Z,8.10
2022-08-18T15:04:19.422Z,15.80
2022-08-18T15:07:05.253Z,8.85
2022-08-18T15:10:15.139Z,15.70
2022-08-18T15:13:01.198Z,11.90
2022-08-18T15:15:51.728Z,9.40
2022-08-18T15:18:37.122Z,11.93
2022-08-18T15:21:42.059Z,10.15
2022-08-18T15:24:46.008Z,8.65
2022-08-18T15:27:43.005Z,10.48
2022-08-18T15:30:29.110Z,9.80
2022-08-18T15:33:15.901Z,10.73
2022-08-18T15:36:04.470Z,11.15
2022-08-18T15:38:56.394Z,12.40
2022-08-18T15:41:46.472Z,10.55
2022-08-18T15:47:20.744Z,12.77
2022-08-18T15:50:25.277Z,12.48
2022-08-18T15:53:12.015Z,11.20
2022-08-18T15:55:58.851Z,10.93
2022-08-18T15:58:50.725Z,11.23
2022-08-18T16:01:40.544Z,10.10
2022-08-18T16:04:27.613Z,11.45
2022-08-18T16:07:14.793Z,10.93
2022-08-18T16:10:03.983Z,10.43
2022-08-18T16:12:49.670Z,7.97
2022-08-18T16:15:39.093Z,8.73
2022-08-18T16:18:25.246Z,10.48
2022-08-18T16:21:12.706Z,13.60
2022-08-18T16:23:58.293Z,10.43
2022-08-18T16:26:43.367Z,10.50
2022-08-18T16:29:28.678Z,9.40
2022-08-18T16:32:16.469Z,14.43
2022-08-18T16:35:01.905Z,7.55
2022-08-18T16:37:49.610Z,8.35
2022-08-18T16:40:35.455Z,8.20
2022-08-18T16:43:20.659Z,11.05
2022-08-18T16:46:14.600Z,8.52
2022-08-18T16:49:07.615Z,12.40
2022-08-18T16:51:52.635Z,10.70
2022-08-18T16:54:38.290Z,11.05
2022-08-18T16:57:54.056Z,12.32
2022-08-18T17:01:33.868Z,10.52
2022-08-18T17:04:34.970Z,11.77
2022-08-18T17:07:20.509Z,8.00
2022-08-18T17:10:06.768Z,9.38
2022-08-18T17:12:52.463Z,14.77
2022-08-18T17:16:10.452Z,9.20
2022-08-18T17:19:05.111Z,13.93
2022-08-18T17:22:14.056Z,12.18
2022-08-18T17:25:13.230Z,10.90
2022-08-18T17:28:26.283Z,12.27
2022-08-18T17:31:12.163Z,13.35
2022-08-18T17:34:05.157Z,10.88
2022-08-18T17:36:56.466Z,9.88
2022-08-18T17:40:12.582Z,11.02
2022-08-18T17:42:59.866Z,12.68
2022-08-18T17:45:52.443Z,12.98
2022-08-18T17:48:52.548Z,10.95
2022-08-18T17:51:48.982Z,13.23
2022-08-18T17:54:45.822Z,11.57
2022-08-18T17:57:33.081Z,12.77
2022-08-18T18:00:18.908Z,11.73
2022-08-18T18:03:04.103Z,10.80
2022-08-18T18:06:02.626Z,12.55
2022-08-18T18:09:04.473Z,9.93
2022-08-18T18:11:49.610Z,13.85
2022-08-18T18:14:39.566Z,10.55
2022-08-18T18:17:42.819Z,11.23
2022-08-18T18:20:37.952Z,12.25
2022-08-18T18:23:29.429Z,12.65
2022-08-18T18:26:33.680Z,10.90
2022-08-18T18:29:33.294Z,14.55
2022-08-18T18:32:35.158Z,11.15
2022-08-18T18:35:54.337Z,11.32
2022-08-18T18:38:46.334Z,15.82
2022-08-18T18:41:31.400Z,11.68
2022-08-18T18:44:24.875Z,11.23
2022-08-18T18:47:43.078Z,10.13
2022-08-18T18:50:55.728Z,11.57
2022-08-18T18:53:54.603Z,13.90
2022-08-18T18:56:52.746Z,14.98
2022-08-18T19:03:03.444Z,12.60
2022-08-18T19:06:00.979Z,11.80
2022-08-18T19:09:14.191Z,14.45
2022-08-18T19:12:20.665Z,12.45
2022-08-18T19:15:14.571Z,13.00
2022-08-18T19:18:21.624Z,14.27
2022-08-18T19:22:04.134Z,14.88
2022-08-18T19:24:30.313Z,14.07
2022-08-18T19:27:47.240Z,14.32
2022-08-18T19:30:36.808Z,16.75
2022-08-18T19:33:28.111Z,16.85
2022-08-18T19:36:38.811Z,16.08
2022-08-18T19:39:36.641Z,19.17
2022-08-18T19:42:32.351Z,13.73
2022-08-18T19:45:29.552Z,16.92
2022-08-18T19:48:27.074Z,16.65
2022-08-18T19:51:35.118Z,18.35
2022-08-18T19:54:43.814Z,15.68
2022-08-18T19:57:47.682Z,17.60
2022-08-18T20:00:57.888Z,17.13
2022-08-18T20:04:21.826Z,18.15
2022-08-18T20:07:37.925Z,18.55
2022-08-18T20:11:01.322Z,17.45
2022-08-18T20:13:49.107Z,19.02
2022-08-18T20:16:44.119Z,17.10
2022-08-18T20:19:36.035Z,18.63
2022-08-18T20:22:21.766Z,19.10
2022-08-18T20:25:38.715Z,19.83
2022-08-18T20:28:34.490Z,21.83
2022-08-18T20:31:22.978Z,18.55
2022-08-18T20:34:14.316Z,18.52
2022-08-18T20:37:08.058Z,19.80
2022-08-18T20:39:55.044Z,18.88
2022-08-18T20:42:55.749Z,21.60
2022-08-18T20:48:34.979Z,26.15
2022-08-18T20:51:26.415Z,20.83
2022-08-18T20:54:39.565Z,24.67
2022-08-18T20:57:43.861Z,23.17
2022-08-18T21:00:30.065Z,28.73
2022-08-18T21:03:20.467Z,28.35
2022-08-18T21:06:06.853Z,26.60
2022-08-18T21:08:53.639Z,30.33
2022-08-18T21:11:45.499Z,32.15
2022-08-18T21:17:17.552Z,26.73
2022-08-18T21:20:10.812Z,26.27
2022-08-18T21:23:12.644Z,25.45
2022-08-18T21:26:16.172Z,26.75
2022-08-18T21:29:08.902Z,20.42
2022-08-18T21:32:12.058Z,23.17
2022-08-18T21:35:01.864Z,21.65
2022-08-18T21:38:00.486Z,22.95
2022-08-18T21:40:48.465Z,24.20
2022-08-18T21:43:49.438Z,21.95
2022-08-18T21:46:34.835Z,24.38
2022-08-18T21:49:26.978Z,22.75
2022-08-18T21:52:24.130Z,22.25
2022-08-18T21:55:20.303Z,20.08
2022-08-18T21:58:16.569Z,20.33
2022-08-18T22:01:21.510Z,21.63
2022-08-18T22:04:33.499Z,20.77
2022-08-18T22:10:50.966Z,22.65
2022-08-18T22:13:58.463Z,20.00
2022-08-18T22:16:45.837Z,22.85
2022-08-18T22:19:31.343Z,27.15
2022-08-18T22:22:37.398Z,24.75
2022-08-18T22:25:23.796Z,24.10
2022-08-18T22:28:09.321Z,23.95
2022-08-18T22:30:54.772Z,21.30
2022-08-18T22:33:40.425Z,25.65
2022-08-18T22:36:28.967Z,23.35
2022-08-18T22:39:21.759Z,24.50
2022-08-18T22:42:09.577Z,21.52
2022-08-18T22:44:57.153Z,21.40
2022-08-18T22:47:45.444Z,26.00
2022-08-18T22:50:30.971Z,24.10
2022-08-18T22:53:17.735Z,21.85
2022-08-18T22:56:07.161Z,26.48
2022-08-18T22:58:53.120Z,26.42
2022-08-18T23:01:39.274Z,25.45
2022-08-18T23:04:25.692Z,25.75
2022-08-18T23:07:12.041Z,28.10
2022-08-18T23:09:57.792Z,26.83
2022-08-18T23:12:44.439Z,23.73
2022-08-18T23:15:43.698Z,23.17
2022-08-18T23:18:28.939Z,23.73
2022-08-18T23:21:34.716Z,21.15
2022-08-18T23:24:20.832Z,22.48
2022-08-18T23:27:06.927Z,24.02
2022-08-18T23:29:52.357Z,20.40
2022-08-18T23:32:37.724Z,18.40
2022-08-18T23:35:23.766Z,18.30
2022-08-18T23:38:10.449Z,18.38
2022-08-18T23:40:57.286Z,20.30
2022-08-18T23:43:43.004Z,13.38
2022-08-18T23:46:34.073Z,18.70
2022-08-18T23:49:19.719Z,16.63
2022-08-18T23:52:05.765Z,19.17
2022-08-18T23:54:51.329Z,19.17
2022-08-18T23:57:36.673Z,18.05
